sensor_id;sensor_type;location;lat;lon;timestamp;P1;P2;P0
12542;PMS3003;6337;49.556;25.594;2023-09-08T00:00:51;7.27;4.57;
12542;PMS3003;6337;49.556;25.594;2023-09-08T00:03:19;11.10;5.30;
12542;PMS3003;6337;49.556;25.594;2023-09-08T00:05:48;6.73;5.30;
12542;PMS3003;6337;49.556;25.594;2023-09-08T00:08:16;7.77;5.53;
12542;PMS3003;6337;49.556;25.594;2023-09-08T00:10:43;9.50;6.57;
12542;PMS3003;6337;49.556;25.594;2023-09-08T00:13:12;6.93;5.03;
12542;PMS3003;6337;49.556;25.594;2023-09-08T00:15:39;11.20;5.97;
12542;PMS3003;6337;49.556;25.594;2023-09-08T00:18:06;8.70;5.23;
12542;PMS3003;6337;49.556;25.594;2023-09-08T00:20:33;9.90;6.20;
12542;PMS3003;6337;49.556;25.594;2023-09-08T00:23:01;9.47;6.17;
12542;PMS3003;6337;49.556;25.594;2023-09-08T00:25:28;6.80;4.60;
12542;PMS3003;6337;49.556;25.594;2023-09-08T00:27:55;10.73;6.23;
12542;PMS3003;6337;49.556;25.594;2023-09-08T00:30:24;11.10;4.80;
12542;PMS3003;6337;49.556;25.594;2023-09-08T00:32:51;9.40;5.70;
12542;PMS3003;6337;49.556;25.594;2023-09-08T00:35:20;11.70;4.90;
12542;PMS3003;6337;49.556;25.594;2023-09-08T00:37:47;10.57;5.50;
12542;PMS3003;6337;49.556;25.594;2023-09-08T00:40:14;8.70;5.90;
12542;PMS3003;6337;49.556;25.594;2023-09-08T00:42:42;7.90;4.77;
12542;PMS3003;6337;49.556;25.594;2023-09-08T00:45:10;8.30;4.90;
12542;PMS3003;6337;49.556;25.594;2023-09-08T00:47:39;15.93;6.33;
12542;PMS3003;6337;49.556;25.594;2023-09-08T00:50:07;18.67;6.90;
12542;PMS3003;6337;49.556;25.594;2023-09-08T00:52:35;9.40;7.50;
12542;PMS3003;6337;49.556;25.594;2023-09-08T00:55:02;13.33;6.27;
12542;PMS3003;6337;49.556;25.594;2023-09-08T00:57:30;8.20;5.47;
12542;PMS3003;6337;49.556;25.594;2023-09-08T00:59:57;10.93;5.73;
12542;PMS3003;6337;49.556;25.594;2023-09-08T01:02:24;17.20;5.60;
12542;PMS3003;6337;49.556;25.594;2023-09-08T01:04:54;10.70;5.50;
12542;PMS3003;6337;49.556;25.594;2023-09-08T01:07:24;18.30;6.37;
12542;PMS3003;6337;49.556;25.594;2023-09-08T01:09:53;15.10;7.43;
12542;PMS3003;6337;49.556;25.594;2023-09-08T01:12:21;10.40;5.80;
12542;PMS3003;6337;49.556;25.594;2023-09-08T01:14:49;10.70;5.40;
12542;PMS3003;6337;49.556;25.594;2023-09-08T01:17:15;10.20;5.30;
12542;PMS3003;6337;49.556;25.594;2023-09-08T01:19:42;9.00;4.70;
12542;PMS3003;6337;49.556;25.594;2023-09-08T01:25:19;10.80;6.20;
12542;PMS3003;6337;49.556;25.594;2023-09-08T01:27:49;7.27;5.50;
12542;PMS3003;6337;49.556;25.594;2023-09-08T01:30:19;9.77;5.13;
12542;PMS3003;6337;49.556;25.594;2023-09-08T01:32:47;10.10;5.47;
12542;PMS3003;6337;49.556;25.594;2023-09-08T01:35:15;9.27;5.10;
12542;PMS3003;6337;49.556;25.594;2023-09-08T01:37:44;12.03;6.00;
12542;PMS3003;6337;49.556;25.594;2023-09-08T01:40:12;7.53;5.03;
12542;PMS3003;6337;49.556;25.594;2023-09-08T01:42:41;9.73;5.33;
12542;PMS3003;6337;49.556;25.594;2023-09-08T01:45:08;10.93;6.03;
12542;PMS3003;6337;49.556;25.594;2023-09-08T01:47:36;10.97;5.77;
12542;PMS3003;6337;49.556;25.594;2023-09-08T01:50:03;10.87;5.30;
12542;PMS3003;6337;49.556;25.594;2023-09-08T01:52:31;10.20;4.40;
12542;PMS3003;6337;49.556;25.594;2023-09-08T01:54:58;10.43;5.23;
12542;PMS3003;6337;49.556;25.594;2023-09-08T01:57:26;7.30;5.27;
12542;PMS3003;6337;49.556;25.594;2023-09-08T01:59:55;7.20;4.60;
12542;PMS3003;6337;49.556;25.594;2023-09-08T02:02:22;8.83;6.73;
12542;PMS3003;6337;49.556;25.594;2023-09-08T02:04:49;7.90;5.27;
12542;PMS3003;6337;49.556;25.594;2023-09-08T02:07:16;10.20;5.60;
12542;PMS3003;6337;49.556;25.594;2023-09-08T02:09:44;7.60;5.63;
12542;PMS3003;6337;49.556;25.594;2023-09-08T02:12:11;10.83;6.20;
12542;PMS3003;6337;49.556;25.594;2023-09-08T02:14:39;10.63;6.23;
12542;PMS3003;6337;49.556;25.594;2023-09-08T02:17:08;9.53;5.70;
12542;PMS3003;6337;49.556;25.594;2023-09-08T02:19:36;13.93;5.77;
12542;PMS3003;6337;49.556;25.594;2023-09-08T02:22:03;8.87;6.20;
12542;PMS3003;6337;49.556;25.594;2023-09-08T02:24:30;11.17;4.53;
12542;PMS3003;6337;49.556;25.594;2023-09-08T02:26:57;13.50;5.30;
12542;PMS3003;6337;49.556;25.594;2023-09-08T02:29:24;7.57;4.60;
12542;PMS3003;6337;49.556;25.594;2023-09-08T02:31:51;16.33;5.60;
12542;PMS3003;6337;49.556;25.594;2023-09-08T02:34:20;7.83;5.47;
12542;PMS3003;6337;49.556;25.594;2023-09-08T02:36:47;8.90;5.30;
12542;PMS3003;6337;49.556;25.594;2023-09-08T02:39:17;16.07;6.10;
12542;PMS3003;6337;49.556;25.594;2023-09-08T02:41:45;15.33;5.80;
12542;PMS3003;6337;49.556;25.594;2023-09-08T02:44:12;9.03;5.47;
12542;PMS3003;6337;49.556;25.594;2023-09-08T02:46:39;10.30;6.27;
12542;PMS3003;6337;49.556;25.594;2023-09-08T02:49:06;10.80;5.23;
12542;PMS3003;6337;49.556;25.594;2023-09-08T02:51:35;15.40;6.90;
12542;PMS3003;6337;49.556;25.594;2023-09-08T02:54:02;8.67;4.93;
12542;PMS3003;6337;49.556;25.594;2023-09-08T02:56:30;10.50;5.90;
12542;PMS3003;6337;49.556;25.594;2023-09-08T02:58:57;7.70;5.60;
12542;PMS3003;6337;49.556;25.594;2023-09-08T03:01:24;7.77;6.23;
12542;PMS3003;6337;49.556;25.594;2023-09-08T03:03:51;9.83;5.73;
12542;PMS3003;6337;49.556;25.594;2023-09-08T03:06:19;11.13;5.30;
12542;PMS3003;6337;49.556;25.594;2023-09-08T03:08:48;8.10;5.50;
12542;PMS3003;6337;49.556;25.594;2023-09-08T03:11:15;10.13;7.27;
12542;PMS3003;6337;49.556;25.594;2023-09-08T03:13:44;11.90;5.70;
12542;PMS3003;6337;49.556;25.594;2023-09-08T03:16:11;14.00;6.63;
12542;PMS3003;6337;49.556;25.594;2023-09-08T03:18:38;13.27;6.50;
12542;PMS3003;6337;49.556;25.594;2023-09-08T03:21:06;12.50;6.83;
12542;PMS3003;6337;49.556;25.594;2023-09-08T03:23:36;14.03;7.07;
12542;PMS3003;6337;49.556;25.594;2023-09-08T03:26:05;15.73;5.67;
12542;PMS3003;6337;49.556;25.594;2023-09-08T03:28:32;14.63;7.60;
12542;PMS3003;6337;49.556;25.594;2023-09-08T03:31:01;16.63;6.90;
12542;PMS3003;6337;49.556;25.594;2023-09-08T03:33:28;7.43;5.90;
12542;PMS3003;6337;49.556;25.594;2023-09-08T03:35:55;11.53;8.03;
12542;PMS3003;6337;49.556;25.594;2023-09-08T03:38:23;14.63;7.37;
12542;PMS3003;6337;49.556;25.594;2023-09-08T03:40:50;6.97;6.23;
12542;PMS3003;6337;49.556;25.594;2023-09-08T03:43:19;9.80;5.70;
12542;PMS3003;6337;49.556;25.594;2023-09-08T03:45:46;13.23;6.57;
12542;PMS3003;6337;49.556;25.594;2023-09-08T03:48:13;12.10;5.90;
12542;PMS3003;6337;49.556;25.594;2023-09-08T03:50:40;13.83;7.20;
12542;PMS3003;6337;49.556;25.594;2023-09-08T03:53:10;11.87;6.50;
12542;PMS3003;6337;49.556;25.594;2023-09-08T03:55:37;13.50;6.00;
12542;PMS3003;6337;49.556;25.594;2023-09-08T03:58:05;15.70;6.63;
12542;PMS3003;6337;49.556;25.594;2023-09-08T04:00:34;10.30;6.97;
12542;PMS3003;6337;49.556;25.594;2023-09-08T04:03:02;11.00;8.27;
12542;PMS3003;6337;49.556;25.594;2023-09-08T04:05:29;8.90;6.10;
12542;PMS3003;6337;49.556;25.594;2023-09-08T04:07:58;17.17;7.30;
12542;PMS3003;6337;49.556;25.594;2023-09-08T04:10:26;12.83;7.23;
12542;PMS3003;6337;49.556;25.594;2023-09-08T04:12:53;11.00;6.70;
12542;PMS3003;6337;49.556;25.594;2023-09-08T04:15:20;10.67;6.80;
12542;PMS3003;6337;49.556;25.594;2023-09-08T04:17:49;11.77;6.00;
12542;PMS3003;6337;49.556;25.594;2023-09-08T04:20:16;11.10;6.87;
12542;PMS3003;6337;49.556;25.594;2023-09-08T04:22:44;15.50;6.70;
12542;PMS3003;6337;49.556;25.594;2023-09-08T04:25:12;17.90;9.00;
12542;PMS3003;6337;49.556;25.594;2023-09-08T04:27:39;9.77;7.10;
12542;PMS3003;6337;49.556;25.594;2023-09-08T04:30:07;15.97;8.70;
12542;PMS3003;6337;49.556;25.594;2023-09-08T04:32:35;19.13;8.23;
12542;PMS3003;6337;49.556;25.594;2023-09-08T04:35:06;14.40;7.10;
12542;PMS3003;6337;49.556;25.594;2023-09-08T04:37:34;12.57;7.23;
12542;PMS3003;6337;49.556;25.594;2023-09-08T04:40:01;17.70;8.07;
12542;PMS3003;6337;49.556;25.594;2023-09-08T04:42:29;20.40;7.20;
12542;PMS3003;6337;49.556;25.594;2023-09-08T04:44:56;12.60;7.03;
12542;PMS3003;6337;49.556;25.594;2023-09-08T04:47:23;16.43;7.60;
12542;PMS3003;6337;49.556;25.594;2023-09-08T04:49:50;13.63;7.20;
12542;PMS3003;6337;49.556;25.594;2023-09-08T04:52:19;30.30;11.83;
12542;PMS3003;6337;49.556;25.594;2023-09-08T04:54:46;32.03;8.63;
12542;PMS3003;6337;49.556;25.594;2023-09-08T04:57:14;23.77;9.63;
12542;PMS3003;6337;49.556;25.594;2023-09-08T04:59:41;17.97;8.30;
12542;PMS3003;6337;49.556;25.594;2023-09-08T05:02:08;24.33;9.33;
12542;PMS3003;6337;49.556;25.594;2023-09-08T05:04:35;26.83;8.40;
12542;PMS3003;6337;49.556;25.594;2023-09-08T05:07:02;18.83;7.83;
12542;PMS3003;6337;49.556;25.594;2023-09-08T05:09:31;22.70;10.00;
12542;PMS3003;6337;49.556;25.594;2023-09-08T05:11:59;19.77;8.80;
12542;PMS3003;6337;49.556;25.594;2023-09-08T05:14:26;20.13;9.77;
12542;PMS3003;6337;49.556;25.594;2023-09-08T05:16:53;20.63;9.30;
12542;PMS3003;6337;49.556;25.594;2023-09-08T05:19:21;31.13;10.20;
12542;PMS3003;6337;49.556;25.594;2023-09-08T05:21:49;29.63;8.23;
12542;PMS3003;6337;49.556;25.594;2023-09-08T05:24:17;16.43;8.97;
12542;PMS3003;6337;49.556;25.594;2023-09-08T05:26:47;16.30;7.50;
12542;PMS3003;6337;49.556;25.594;2023-09-08T05:29:14;13.13;6.73;
12542;PMS3003;6337;49.556;25.594;2023-09-08T05:31:42;23.33;7.07;
12542;PMS3003;6337;49.556;25.594;2023-09-08T05:34:09;13.97;7.13;
12542;PMS3003;6337;49.556;25.594;2023-09-08T05:36:37;21.07;6.80;
12542;PMS3003;6337;49.556;25.594;2023-09-08T05:39:05;19.23;7.33;
12542;PMS3003;6337;49.556;25.594;2023-09-08T05:41:33;16.90;6.10;
12542;PMS3003;6337;49.556;25.594;2023-09-08T05:44:01;17.30;7.10;
12542;PMS3003;6337;49.556;25.594;2023-09-08T05:46:29;24.80;6.83;
12542;PMS3003;6337;49.556;25.594;2023-09-08T05:48:56;25.67;8.17;
12542;PMS3003;6337;49.556;25.594;2023-09-08T05:51:23;40.43;8.70;
12542;PMS3003;6337;49.556;25.594;2023-09-08T05:53:50;26.23;7.73;
12542;PMS3003;6337;49.556;25.594;2023-09-08T05:56:18;32.23;7.50;
12542;PMS3003;6337;49.556;25.594;2023-09-08T05:58:46;21.07;8.03;
12542;PMS3003;6337;49.556;25.594;2023-09-08T06:01:15;40.17;8.17;
12542;PMS3003;6337;49.556;25.594;2023-09-08T06:03:45;35.53;9.20;
12542;PMS3003;6337;49.556;25.594;2023-09-08T06:06:12;33.67;8.27;
12542;PMS3003;6337;49.556;25.594;2023-09-08T06:08:41;20.57;7.53;
12542;PMS3003;6337;49.556;25.594;2023-09-08T06:11:09;32.13;8.07;
12542;PMS3003;6337;49.556;25.594;2023-09-08T06:13:37;36.93;7.53;
12542;PMS3003;6337;49.556;25.594;2023-09-08T06:16:04;33.17;7.30;
12542;PMS3003;6337;49.556;25.594;2023-09-08T06:18:34;33.87;9.40;
12542;PMS3003;6337;49.556;25.594;2023-09-08T06:21:05;34.10;7.87;
12542;PMS3003;6337;49.556;25.594;2023-09-08T06:23:32;39.33;7.60;
12542;PMS3003;6337;49.556;25.594;2023-09-08T06:25:59;38.10;7.47;
12542;PMS3003;6337;49.556;25.594;2023-09-08T06:28:27;32.00;6.87;
12542;PMS3003;6337;49.556;25.594;2023-09-08T06:30:54;31.90;8.53;
12542;PMS3003;6337;49.556;25.594;2023-09-08T06:33:21;36.03;9.40;
12542;PMS3003;6337;49.556;25.594;2023-09-08T06:35:50;33.23;7.23;
12542;PMS3003;6337;49.556;25.594;2023-09-08T06:38:18;53.50;11.40;
12542;PMS3003;6337;49.556;25.594;2023-09-08T06:40:46;38.90;9.70;
12542;PMS3003;6337;49.556;25.594;2023-09-08T06:43:14;19.53;7.33;
12542;PMS3003;6337;49.556;25.594;2023-09-08T06:45:41;28.67;6.57;
12542;PMS3003;6337;49.556;25.594;2023-09-08T06:48:09;21.70;7.87;
12542;PMS3003;6337;49.556;25.594;2023-09-08T06:50:36;14.20;5.70;
12542;PMS3003;6337;49.556;25.594;2023-09-08T06:53:05;16.93;6.77;
12542;PMS3003;6337;49.556;25.594;2023-09-08T06:55:32;13.20;7.13;
12542;PMS3003;6337;49.556;25.594;2023-09-08T06:58:00;12.83;5.37;
12542;PMS3003;6337;49.556;25.594;2023-09-08T07:00:31;16.53;5.67;
12542;PMS3003;6337;49.556;25.594;2023-09-08T07:02:58;11.13;5.93;
12542;PMS3003;6337;49.556;25.594;2023-09-08T07:05:25;11.83;4.73;
12542;PMS3003;6337;49.556;25.594;2023-09-08T07:07:52;12.67;7.27;
12542;PMS3003;6337;49.556;25.594;2023-09-08T07:10:21;8.87;5.03;
12542;PMS3003;6337;49.556;25.594;2023-09-08T07:12:48;9.50;5.20;
12542;PMS3003;6337;49.556;25.594;2023-09-08T07:15:15;7.57;6.00;
12542;PMS3003;6337;49.556;25.594;2023-09-08T07:17:43;11.77;5.17;
12542;PMS3003;6337;49.556;25.594;2023-09-08T07:20:10;8.70;4.33;
12542;PMS3003;6337;49.556;25.594;2023-09-08T07:22:37;9.83;4.70;
12542;PMS3003;6337;49.556;25.594;2023-09-08T07:25:05;6.20;4.90;
12542;PMS3003;6337;49.556;25.594;2023-09-08T07:27:35;18.23;6.10;
12542;PMS3003;6337;49.556;25.594;2023-09-08T07:30:02;10.83;6.73;
12542;PMS3003;6337;49.556;25.594;2023-09-08T07:32:30;11.20;6.13;
12542;PMS3003;6337;49.556;25.594;2023-09-08T07:34:57;10.73;6.03;
12542;PMS3003;6337;49.556;25.594;2023-09-08T07:37:24;16.23;5.87;
12542;PMS3003;6337;49.556;25.594;2023-09-08T07:39:54;9.00;5.80;
12542;PMS3003;6337;49.556;25.594;2023-09-08T07:42:21;11.83;6.10;
12542;PMS3003;6337;49.556;25.594;2023-09-08T07:44:50;8.70;5.40;
12542;PMS3003;6337;49.556;25.594;2023-09-08T07:47:18;9.13;5.20;
12542;PMS3003;6337;49.556;25.594;2023-09-08T07:49:45;16.17;6.50;
12542;PMS3003;6337;49.556;25.594;2023-09-08T07:52:13;7.30;5.23;
12542;PMS3003;6337;49.556;25.594;2023-09-08T07:54:41;9.03;5.97;
12542;PMS3003;6337;49.556;25.594;2023-09-08T07:57:08;22.30;6.07;
12542;PMS3003;6337;49.556;25.594;2023-09-08T07:59:35;9.87;4.83;
12542;PMS3003;6337;49.556;25.594;2023-09-08T08:02:04;15.87;6.63;
12542;PMS3003;6337;49.556;25.594;2023-09-08T08:04:31;8.50;3.87;
12542;PMS3003;6337;49.556;25.594;2023-09-08T08:06:58;8.30;6.33;
12542;PMS3003;6337;49.556;25.594;2023-09-08T08:09:25;12.60;5.20;
12542;PMS3003;6337;49.556;25.594;2023-09-08T08:11:53;11.70;5.30;
12542;PMS3003;6337;49.556;25.594;2023-09-08T08:14:20;12.17;4.30;
12542;PMS3003;6337;49.556;25.594;2023-09-08T08:16:47;9.00;4.60;
12542;PMS3003;6337;49.556;25.594;2023-09-08T08:19:16;10.00;5.57;
12542;PMS3003;6337;49.556;25.594;2023-09-08T08:21:44;12.83;5.53;
12542;PMS3003;6337;49.556;25.594;2023-09-08T08:24:11;4.20;3.80;
12542;PMS3003;6337;49.556;25.594;2023-09-08T08:26:38;12.83;3.73;
12542;PMS3003;6337;49.556;25.594;2023-09-08T08:29:05;6.30;3.40;
12542;PMS3003;6337;49.556;25.594;2023-09-08T08:31:32;8.60;4.43;
12542;PMS3003;6337;49.556;25.594;2023-09-08T08:33:59;10.10;3.57;
12542;PMS3003;6337;49.556;25.594;2023-09-08T08:36:28;7.33;4.80;
12542;PMS3003;6337;49.556;25.594;2023-09-08T08:38:55;3.70;2.77;
12542;PMS3003;6337;49.556;25.594;2023-09-08T08:41:22;8.60;3.70;
12542;PMS3003;6337;49.556;25.594;2023-09-08T08:43:50;6.10;2.93;
12542;PMS3003;6337;49.556;25.594;2023-09-08T08:46:18;9.60;2.70;
12542;PMS3003;6337;49.556;25.594;2023-09-08T08:48:45;3.53;2.90;
12542;PMS3003;6337;49.556;25.594;2023-09-08T08:51:13;4.87;3.00;
12542;PMS3003;6337;49.556;25.594;2023-09-08T08:53:43;5.70;3.37;
12542;PMS3003;6337;49.556;25.594;2023-09-08T08:56:10;4.93;2.53;
12542;PMS3003;6337;49.556;25.594;2023-09-08T08:58:37;2.80;2.60;
12542;PMS3003;6337;49.556;25.594;2023-09-08T09:01:07;3.87;3.00;
12542;PMS3003;6337;49.556;25.594;2023-09-08T09:03:34;3.70;2.80;
12542;PMS3003;6337;49.556;25.594;2023-09-08T09:06:03;7.73;3.77;
12542;PMS3003;6337;49.556;25.594;2023-09-08T09:08:32;3.83;2.50;
12542;PMS3003;6337;49.556;25.594;2023-09-08T09:11:01;4.60;2.63;
12542;PMS3003;6337;49.556;25.594;2023-09-08T09:13:28;5.77;3.47;
12542;PMS3003;6337;49.556;25.594;2023-09-08T09:15:57;3.90;3.03;
12542;PMS3003;6337;49.556;25.594;2023-09-08T09:18:25;4.40;2.77;
12542;PMS3003;6337;49.556;25.594;2023-09-08T09:20:55;6.77;3.00;
12542;PMS3003;6337;49.556;25.594;2023-09-08T09:23:29;3.83;3.03;
12542;PMS3003;6337;49.556;25.594;2023-09-08T09:25:57;5.60;3.03;
12542;PMS3003;6337;49.556;25.594;2023-09-08T09:28:26;3.43;2.60;
12542;PMS3003;6337;49.556;25.594;2023-09-08T09:30:55;9.10;2.90;
12542;PMS3003;6337;49.556;25.594;2023-09-08T09:33:22;4.20;2.90;
12542;PMS3003;6337;49.556;25.594;2023-09-08T09:35:52;4.53;3.30;
12542;PMS3003;6337;49.556;25.594;2023-09-08T09:38:19;13.50;3.63;
12542;PMS3003;6337;49.556;25.594;2023-09-08T09:40:47;3.53;2.90;
12542;PMS3003;6337;49.556;25.594;2023-09-08T09:43:14;7.73;4.17;
12542;PMS3003;6337;49.556;25.594;2023-09-08T09:45:44;9.40;2.40;
12542;PMS3003;6337;49.556;25.594;2023-09-08T09:48:11;4.63;3.03;
12542;PMS3003;6337;49.556;25.594;2023-09-08T09:50:39;3.30;3.10;
12542;PMS3003;6337;49.556;25.594;2023-09-08T09:53:08;2.70;2.50;
12542;PMS3003;6337;49.556;25.594;2023-09-08T09:55:36;4.80;3.13;
12542;PMS3003;6337;49.556;25.594;2023-09-08T09:58:04;9.03;3.03;
12542;PMS3003;6337;49.556;25.594;2023-09-08T10:00:33;2.50;2.30;
12542;PMS3003;6337;49.556;25.594;2023-09-08T10:03:03;2.40;2.23;
12542;PMS3003;6337;49.556;25.594;2023-09-08T10:05:31;4.30;2.27;
12542;PMS3003;6337;49.556;25.594;2023-09-08T10:07:58;3.30;2.70;
12542;PMS3003;6337;49.556;25.594;2023-09-08T10:10:26;3.50;2.50;
12542;PMS3003;6337;49.556;25.594;2023-09-08T10:12:56;5.57;3.50;
12542;PMS3003;6337;49.556;25.594;2023-09-08T10:15:26;3.57;2.30;
12542;PMS3003;6337;49.556;25.594;2023-09-08T10:17:54;3.73;2.80;
12542;PMS3003;6337;49.556;25.594;2023-09-08T10:20:24;5.27;3.10;
12542;PMS3003;6337;49.556;25.594;2023-09-08T10:22:52;13.53;3.20;
12542;PMS3003;6337;49.556;25.594;2023-09-08T10:25:21;16.53;4.43;
12542;PMS3003;6337;49.556;25.594;2023-09-08T10:27:51;3.63;3.33;
12542;PMS3003;6337;49.556;25.594;2023-09-08T10:30:20;3.87;3.07;
12542;PMS3003;6337;49.556;25.594;2023-09-08T10:32:47;4.10;2.80;
12542;PMS3003;6337;49.556;25.594;2023-09-08T10:35:16;7.03;3.30;
12542;PMS3003;6337;49.556;25.594;2023-09-08T10:37:45;4.43;2.40;
12542;PMS3003;6337;49.556;25.594;2023-09-08T10:40:22;5.40;2.80;
12542;PMS3003;6337;49.556;25.594;2023-09-08T10:42:53;3.00;2.20;
12542;PMS3003;6337;49.556;25.594;2023-09-08T10:45:32;4.00;2.53;
12542;PMS3003;6337;49.556;25.594;2023-09-08T10:47:59;2.90;2.30;
12542;PMS3003;6337;49.556;25.594;2023-09-08T10:50:29;7.60;2.90;
12542;PMS3003;6337;49.556;25.594;2023-09-08T10:53:07;3.13;2.37;
12542;PMS3003;6337;49.556;25.594;2023-09-08T10:55:39;3.60;2.90;
12542;PMS3003;6337;49.556;25.594;2023-09-08T10:58:09;3.27;2.80;
12542;PMS3003;6337;49.556;25.594;2023-09-08T11:00:43;2.67;2.47;
12542;PMS3003;6337;49.556;25.594;2023-09-08T11:03:11;4.03;2.50;
12542;PMS3003;6337;49.556;25.594;2023-09-08T11:05:41;4.60;2.57;
12542;PMS3003;6337;49.556;25.594;2023-09-08T11:08:11;4.20;2.30;
12542;PMS3003;6337;49.556;25.594;2023-09-08T11:10:43;3.70;2.93;
12542;PMS3003;6337;49.556;25.594;2023-09-08T11:13:11;4.27;2.50;
12542;PMS3003;6337;49.556;25.594;2023-09-08T11:15:38;3.30;2.97;
12542;PMS3003;6337;49.556;25.594;2023-09-08T11:18:05;5.67;3.00;
12542;PMS3003;6337;49.556;25.594;2023-09-08T11:20:33;9.23;2.57;
12542;PMS3003;6337;49.556;25.594;2023-09-08T11:23:00;2.37;2.23;
12542;PMS3003;6337;49.556;25.594;2023-09-08T11:25:31;7.67;2.50;
12542;PMS3003;6337;49.556;25.594;2023-09-08T11:27:59;5.80;3.40;
12542;PMS3003;6337;49.556;25.594;2023-09-08T11:30:27;3.83;2.73;
12542;PMS3003;6337;49.556;25.594;2023-09-08T11:32:55;4.33;2.80;
12542;PMS3003;6337;49.556;25.594;2023-09-08T11:35:24;3.20;2.83;
12542;PMS3003;6337;49.556;25.594;2023-09-08T11:37:58;3.33;2.33;
12542;PMS3003;6337;49.556;25.594;2023-09-08T11:40:25;7.97;3.30;
12542;PMS3003;6337;49.556;25.594;2023-09-08T11:42:56;5.77;2.90;
12542;PMS3003;6337;49.556;25.594;2023-09-08T11:45:23;8.47;2.90;
12542;PMS3003;6337;49.556;25.594;2023-09-08T11:47:51;2.83;2.63;
12542;PMS3003;6337;49.556;25.594;2023-09-08T11:50:19;2.20;2.10;
12542;PMS3003;6337;49.556;25.594;2023-09-08T11:52:48;7.03;2.40;
12542;PMS3003;6337;49.556;25.594;2023-09-08T11:55:16;2.40;2.20;
12542;PMS3003;6337;49.556;25.594;2023-09-08T11:57:44;9.90;2.50;
12542;PMS3003;6337;49.556;25.594;2023-09-08T12:00:14;2.90;2.33;
12542;PMS3003;6337;49.556;25.594;2023-09-08T12:02:43;3.10;2.90;
12542;PMS3003;6337;49.556;25.594;2023-09-08T12:05:13;2.70;2.50;
12542;PMS3003;6337;49.556;25.594;2023-09-08T12:07:46;4.23;2.93;
12542;PMS3003;6337;49.556;25.594;2023-09-08T12:10:13;7.80;2.20;
12542;PMS3003;6337;49.556;25.594;2023-09-08T12:12:45;3.57;3.00;
12542;PMS3003;6337;49.556;25.594;2023-09-08T12:18:00;4.10;2.10;
12542;PMS3003;6337;49.556;25.594;2023-09-08T12:20:28;2.77;2.23;
12542;PMS3003;6337;49.556;25.594;2023-09-08T12:22:57;5.70;2.70;
12542;PMS3003;6337;49.556;25.594;2023-09-08T12:25:26;2.90;2.33;
12542;PMS3003;6337;49.556;25.594;2023-09-08T12:27:53;3.30;3.00;
12542;PMS3003;6337;49.556;25.594;2023-09-08T12:30:21;3.20;2.37;
12542;PMS3003;6337;49.556;25.594;2023-09-08T12:32:56;2.87;2.57;
12542;PMS3003;6337;49.556;25.594;2023-09-08T12:35:25;5.83;2.07;
12542;PMS3003;6337;49.556;25.594;2023-09-08T12:37:56;2.23;1.93;
12542;PMS3003;6337;49.556;25.594;2023-09-08T12:40:25;7.47;2.20;
12542;PMS3003;6337;49.556;25.594;2023-09-08T12:42:52;6.27;2.63;
12542;PMS3003;6337;49.556;25.594;2023-09-08T12:45:20;11.27;2.90;
12542;PMS3003;6337;49.556;25.594;2023-09-08T12:47:48;3.43;2.60;
12542;PMS3003;6337;49.556;25.594;2023-09-08T12:50:16;4.57;2.20;
12542;PMS3003;6337;49.556;25.594;2023-09-08T12:52:44;5.90;2.20;
12542;PMS3003;6337;49.556;25.594;2023-09-08T12:55:11;2.10;1.90;
12542;PMS3003;6337;49.556;25.594;2023-09-08T12:57:38;17.13;2.20;
12542;PMS3003;6337;49.556;25.594;2023-09-08T13:00:06;3.17;2.57;
12542;PMS3003;6337;49.556;25.594;2023-09-08T13:02:33;2.37;2.17;
12542;PMS3003;6337;49.556;25.594;2023-09-08T13:05:01;5.23;2.27;
12542;PMS3003;6337;49.556;25.594;2023-09-08T13:07:30;2.83;2.60;
12542;PMS3003;6337;49.556;25.594;2023-09-08T13:09:57;2.90;2.10;
12542;PMS3003;6337;49.556;25.594;2023-09-08T13:12:24;4.13;3.20;
12542;PMS3003;6337;49.556;25.594;2023-09-08T13:14:51;3.23;2.60;
12542;PMS3003;6337;49.556;25.594;2023-09-08T13:17:18;2.63;1.80;
12542;PMS3003;6337;49.556;25.594;2023-09-08T13:19:45;5.40;2.57;
12542;PMS3003;6337;49.556;25.594;2023-09-08T13:22:13;8.43;2.37;
12542;PMS3003;6337;49.556;25.594;2023-09-08T13:24:42;4.13;2.27;
12542;PMS3003;6337;49.556;25.594;2023-09-08T13:27:09;10.43;3.40;
12542;PMS3003;6337;49.556;25.594;2023-09-08T13:29:37;2.90;2.70;
12542;PMS3003;6337;49.556;25.594;2023-09-08T13:32:05;6.47;3.23;
12542;PMS3003;6337;49.556;25.594;2023-09-08T13:34:32;3.90;3.03;
12542;PMS3003;6337;49.556;25.594;2023-09-08T13:37:00;5.90;3.00;
12542;PMS3003;6337;49.556;25.594;2023-09-08T13:39:28;6.43;3.37;
12542;PMS3003;6337;49.556;25.594;2023-09-08T13:41:58;3.60;3.30;
12542;PMS3003;6337;49.556;25.594;2023-09-08T13:44:26;4.67;2.70;
12542;PMS3003;6337;49.556;25.594;2023-09-08T13:46:53;4.50;2.33;
12542;PMS3003;6337;49.556;25.594;2023-09-08T13:49:21;4.27;2.17;
12542;PMS3003;6337;49.556;25.594;2023-09-08T13:51:48;4.93;2.10;
12542;PMS3003;6337;49.556;25.594;2023-09-08T13:54:18;4.70;2.40;
12542;PMS3003;6337;49.556;25.594;2023-09-08T13:56:45;5.37;2.97;
12542;PMS3003;6337;49.556;25.594;2023-09-08T13:59:26;2.30;2.10;
12542;PMS3003;6337;49.556;25.594;2023-09-08T14:01:55;2.97;2.03;
12542;PMS3003;6337;49.556;25.594;2023-09-08T14:04:22;4.43;2.53;
12542;PMS3003;6337;49.556;25.594;2023-09-08T14:06:49;4.40;2.83;
12542;PMS3003;6337;49.556;25.594;2023-09-08T14:09:17;2.93;1.93;
12542;PMS3003;6337;49.556;25.594;2023-09-08T14:11:44;3.23;1.93;
12542;PMS3003;6337;49.556;25.594;2023-09-08T14:14:12;3.70;2.90;
12542;PMS3003;6337;49.556;25.594;2023-09-08T14:16:40;1.83;1.73;
12542;PMS3003;6337;49.556;25.594;2023-09-08T14:19:07;2.90;2.70;
12542;PMS3003;6337;49.556;25.594;2023-09-08T14:21:33;2.30;2.10;
12542;PMS3003;6337;49.556;25.594;2023-09-08T14:24:02;5.83;2.43;
12542;PMS3003;6337;49.556;25.594;2023-09-08T14:26:29;2.70;2.50;
12542;PMS3003;6337;49.556;25.594;2023-09-08T14:28:57;1.87;1.77;
12542;PMS3003;6337;49.556;25.594;2023-09-08T14:31:25;4.93;2.27;
12542;PMS3003;6337;49.556;25.594;2023-09-08T14:33:52;3.70;2.20;
12542;PMS3003;6337;49.556;25.594;2023-09-08T14:36:20;6.13;2.57;
12542;PMS3003;6337;49.556;25.594;2023-09-08T14:38:47;3.00;2.80;
12542;PMS3003;6337;49.556;25.594;2023-09-08T14:41:15;3.80;2.70;
12542;PMS3003;6337;49.556;25.594;2023-09-08T14:43:42;2.93;2.03;
12542;PMS3003;6337;49.556;25.594;2023-09-08T14:46:09;3.50;1.90;
12542;PMS3003;6337;49.556;25.594;2023-09-08T14:48:40;5.27;2.67;
12542;PMS3003;6337;49.556;25.594;2023-09-08T14:51:07;2.57;1.90;
12542;PMS3003;6337;49.556;25.594;2023-09-08T14:53:34;3.70;2.03;
12542;PMS3003;6337;49.556;25.594;2023-09-08T14:56:02;3.90;2.33;
12542;PMS3003;6337;49.556;25.594;2023-09-08T14:58:30;5.90;2.47;
12542;PMS3003;6337;49.556;25.594;2023-09-08T15:00:59;4.97;3.27;
12542;PMS3003;6337;49.556;25.594;2023-09-08T15:03:29;3.30;2.33;
12542;PMS3003;6337;49.556;25.594;2023-09-08T15:05:58;4.43;2.40;
12542;PMS3003;6337;49.556;25.594;2023-09-08T15:08:26;1.93;1.70;
12542;PMS3003;6337;49.556;25.594;2023-09-08T15:10:54;3.30;2.97;
12542;PMS3003;6337;49.556;25.594;2023-09-08T15:13:22;4.97;2.23;
12542;PMS3003;6337;49.556;25.594;2023-09-08T15:15:49;3.50;2.53;
12542;PMS3003;6337;49.556;25.594;2023-09-08T15:18:16;2.33;2.13;
12542;PMS3003;6337;49.556;25.594;2023-09-08T15:20:50;5.50;3.17;